createdAt,value
2023-01-01T00:02:05.268Z,98585.34
2023-01-01T00:05:13.931Z,98582.34
2023-01-01T00:08:20.163Z,98582.53
2023-01-01T00:11:25.556Z,98582.53
2023-01-01T00:14:32.213Z,98568.03
2023-01-01T00:17:37.853Z,98560.84
2023-01-01T00:20:46.874Z,98559.06
2023-01-01T00:23:52.427Z,98564.34
2023-01-01T00:26:58.753Z,98572.06
2023-01-01T00:30:05.101Z,98566.59
2023-01-01T00:33:11.371Z,98571.66
2023-01-01T00:36:22.437Z,98578.56
2023-01-01T00:39:28.867Z,98576.09
2023-01-01T00:42:34.286Z,98581.19
2023-01-01T00:45:40.603Z,98584.72
2023-01-01T00:48:46.195Z,98587.38
2023-01-01T00:51:55.327Z,98579.09
2023-01-01T00:55:00.779Z,98556.66
2023-01-01T00:58:07.282Z,98571.97
2023-01-01T01:01:12.917Z,98568.81
2023-01-01T01:04:19.252Z,98574.44
2023-01-01T01:07:27.383Z,98584.38
2023-01-01T01:10:33.592Z,98580.38
2023-01-01T01:13:40.393Z,98590.28
2023-01-01T01:16:46.783Z,98596.34
2023-01-01T01:19:52.148Z,98588.31
2023-01-01T01:23:01.175Z,98587.44
2023-01-01T01:26:17.547Z,98603.28
2023-01-01T01:29:23.796Z,98603.59
2023-01-01T01:32:29.274Z,98602.00
2023-01-01T01:35:35.975Z,98609.19
2023-01-01T01:38:45.553Z,98600.75
2023-01-01T01:41:52.093Z,98587.03
2023-01-01T01:45:01.847Z,98577.09
2023-01-01T01:48:09.005Z,98573.06
2023-01-01T01:51:21.057Z,98567.19
2023-01-01T01:54:33.366Z,98576.34
2023-01-01T01:57:43.440Z,98572.34
2023-01-01T02:00:51.351Z,98564.75
2023-01-01T02:04:02.270Z,98566.31
2023-01-01T02:07:08.977Z,98569.69
2023-01-01T02:10:17.430Z,98557.69
2023-01-01T02:13:24.277Z,98573.59
2023-01-01T02:16:40.886Z,98572.00
2023-01-01T02:20:14.998Z,98570.75
2023-01-01T02:23:55.863Z,98563.78
2023-01-01T02:27:09.961Z,98560.84
2023-01-01T02:30:21.280Z,98551.25
2023-01-01T02:33:30.918Z,98542.41
2023-01-01T02:36:46.950Z,98565.59
2023-01-01T02:40:02.289Z,98577.06
2023-01-01T02:43:10.044Z,98593.50
2023-01-01T02:49:23.134Z,98589.22
2023-01-01T02:53:04.783Z,98591.22
2023-01-01T02:56:26.237Z,98593.00
2023-01-01T03:00:05.877Z,98595.19
2023-01-01T03:03:31.839Z,98615.59
2023-01-01T03:06:52.632Z,98612.97
2023-01-01T03:10:10.674Z,98609.97
2023-01-01T03:13:33.486Z,98597.75
2023-01-01T03:16:49.628Z,98609.38
2023-01-01T03:20:04.385Z,98598.09
2023-01-01T03:23:20.742Z,98607.38
2023-01-01T03:26:32.118Z,98616.22
2023-01-01T03:29:43.889Z,98613.41
2023-01-01T03:33:08.088Z,98615.19
2023-01-01T03:36:27.833Z,98611.03
2023-01-01T03:39:41.259Z,98612.94
2023-01-01T03:42:55.344Z,98616.03
2023-01-01T03:46:07.672Z,98612.72
2023-01-01T03:49:17.248Z,98601.88
2023-01-01T03:52:46.628Z,98604.09
2023-01-01T03:56:10.167Z,98591.72
2023-01-01T03:59:26.942Z,98589.44
2023-01-01T04:02:43.340Z,98592.81
2023-01-01T04:05:49.529Z,98580.19
2023-01-01T04:09:05.921Z,98593.91
2023-01-01T04:12:13.459Z,98589.91
2023-01-01T04:15:21.280Z,98601.00
2023-01-01T04:18:26.677Z,98596.06
2023-01-01T04:21:32.924Z,98605.34
2023-01-01T04:24:41.143Z,98611.28
2023-01-01T04:27:47.634Z,98602.09
2023-01-01T04:34:00.986Z,98606.56
2023-01-01T04:37:12.757Z,98641.44
2023-01-01T04:40:22.428Z,98601.28
2023-01-01T04:43:27.810Z,98617.63
2023-01-01T04:46:34.034Z,98618.56
2023-01-01T04:49:39.591Z,98619.31
2023-01-01T04:52:45.858Z,98614.56
2023-01-01T04:55:54.053Z,98633.13
2023-01-01T04:59:00.249Z,98629.44
2023-01-01T05:02:06.524Z,98628.50
2023-01-01T05:05:13.039Z,98626.06
2023-01-01T05:08:18.381Z,98638.31
2023-01-01T05:11:30.813Z,98637.88
2023-01-01T05:14:36.979Z,98643.16
2023-01-01T05:17:43.185Z,98646.09
2023-01-01T05:20:48.708Z,98645.22
2023-01-01T05:24:07.631Z,98649.00
2023-01-01T05:27:19.850Z,98644.91
2023-01-01T05:30:43.033Z,98651.66
2023-01-01T05:34:23.250Z,98643.88
2023-01-01T05:37:43.310Z,98642.50
2023-01-01T05:41:18.128Z,98638.63
2023-01-01T05:44:37.866Z,98652.66
2023-01-01T05:47:55.111Z,98650.00
2023-01-01T05:51:11.126Z,98658.13
2023-01-01T05:57:43.700Z,98660.56
2023-01-01T06:00:52.428Z,98647.19
2023-01-01T06:04:17.239Z,98652.25
2023-01-01T06:07:48.005Z,98664.47
2023-01-01T06:11:08.368Z,98666.38
2023-01-01T06:18:03.147Z,98682.81
2023-01-01T06:21:38.068Z,98671.16
2023-01-01T06:24:44.292Z,98696.50
2023-01-01T06:27:49.666Z,98697.16
2023-01-01T06:30:55.899Z,98698.84
2023-01-01T06:34:04.507Z,98709.59
2023-01-01T06:37:10.736Z,98706.41
2023-01-01T06:40:16.127Z,98708.31
2023-01-01T06:43:22.348Z,98717.53
2023-01-01T06:46:32.735Z,98712.47
2023-01-01T06:49:41.779Z,98720.66
2023-01-01T06:52:50.633Z,98726.25
2023-01-01T06:55:57.683Z,98724.34
2023-01-01T06:59:04.022Z,98733.53
2023-01-01T07:02:14.679Z,98735.81
2023-01-01T07:05:22.996Z,98742.03
2023-01-01T07:08:29.270Z,98742.03
2023-01-01T07:11:35.364Z,98757.63
2023-01-01T07:14:41.613Z,98748.78
2023-01-01T07:17:47.801Z,98763.88
2023-01-01T07:21:02.743Z,98769.22
2023-01-01T07:24:13.374Z,98773.00
2023-01-01T07:27:19.611Z,98772.53
2023-01-01T07:30:25.141Z,98765.22
2023-01-01T07:33:31.778Z,98765.22
2023-01-01T07:36:39.913Z,98765.22
2023-01-01T07:39:46.110Z,98767.03
2023-01-01T07:42:55.956Z,98779.88
2023-01-01T07:46:02.689Z,98777.06
2023-01-01T07:49:08.897Z,98787.34
2023-01-01T07:52:18.526Z,98797.88
2023-01-01T07:55:28.027Z,98799.00
2023-01-01T07:58:34.736Z,98794.84
2023-01-01T08:01:41.328Z,98796.56
2023-01-01T08:04:53.705Z,98810.00
2023-01-01T08:08:31.659Z,98810.88
2023-01-01T08:11:49.602Z,98811.69
2023-01-01T08:15:26.974Z,98820.16
2023-01-01T08:18:43.559Z,98814.66
2023-01-01T08:22:02.894Z,98822.38
2023-01-01T08:25:28.354Z,98823.59
2023-01-01T08:28:36.913Z,98815.69
2023-01-01T08:31:44.959Z,98829.59
2023-01-01T08:34:51.866Z,98831.88
2023-01-01T08:37:58.494Z,98818.16
2023-01-01T08:41:06.796Z,98825.09
2023-01-01T08:44:12.995Z,98828.69
2023-01-01T08:47:24.595Z,98828.47
2023-01-01T08:51:10.693Z,98827.19
2023-01-01T08:54:23.581Z,98837.44
2023-01-01T08:57:34.453Z,98838.75
2023-01-01T09:00:39.953Z,98835.63
2023-01-01T09:03:46.473Z,98824.50
2023-01-01T09:06:52.132Z,98836.47
2023-01-01T09:09:58.368Z,98836.81
2023-01-01T09:13:06.626Z,98835.38
2023-01-01T09:16:13.487Z,98832.25
2023-01-01T09:19:18.914Z,98825.66
2023-01-01T09:22:25.130Z,98805.72
2023-01-01T09:25:30.763Z,98810.50
2023-01-01T09:28:40.529Z,98810.00
2023-01-01T09:31:46.119Z,98810.66
2023-01-01T09:34:52.810Z,98816.78
2023-01-01T09:37:58.611Z,98809.06
2023-01-01T09:41:27.582Z,98811.03
2023-01-01T09:45:10.303Z,98812.00
2023-01-01T09:48:20.365Z,98814.25
2023-01-01T09:51:32.918Z,98804.88
2023-01-01T09:54:46.825Z,98798.13
2023-01-01T09:57:52.315Z,98802.75
2023-01-01T10:01:23.179Z,98807.72
2023-01-01T10:04:52.152Z,98803.63
2023-01-01T10:08:15.848Z,98804.69
2023-01-01T10:11:39.280Z,98811.03
2023-01-01T10:14:57.907Z,98807.53
2023-01-01T10:18:24.096Z,98805.97
2023-01-01T10:21:45.129Z,98774.25
2023-01-01T10:25:02.547Z,98786.28
2023-01-01T10:28:22.442Z,98794.09
2023-01-01T10:31:37.289Z,98791.50
2023-01-01T10:34:46.440Z,98788.72
2023-01-01T10:37:52.995Z,98778.22
2023-01-01T10:41:15.262Z,98786.94
2023-01-01T10:44:34.348Z,98780.03
2023-01-01T10:47:40.801Z,98782.19
2023-01-01T10:50:54.579Z,98782.50
2023-01-01T10:54:01.092Z,98783.00
2023-01-01T10:57:19.674Z,98773.53
2023-01-01T11:00:29.188Z,98762.38
2023-01-01T11:03:35.638Z,98772.50
2023-01-01T11:06:47.768Z,98768.66
2023-01-01T11:10:03.158Z,98763.00
2023-01-01T11:13:23.390Z,98756.13
2023-01-01T11:16:32.489Z,98749.66
2023-01-01T11:19:50.625Z,98751.00
2023-01-01T11:23:00.138Z,98744.25
2023-01-01T11:26:28.084Z,98741.72
2023-01-01T11:29:33.809Z,98741.72
2023-01-01T11:32:41.538Z,98737.88
2023-01-01T11:35:57.155Z,98742.22
2023-01-01T11:39:29.029Z,98745.59
2023-01-01T11:42:39.959Z,98763.41
2023-01-01T11:45:47.075Z,98771.09
2023-01-01T11:48:53.653Z,98707.78
2023-01-01T11:52:02.157Z,98765.28
2023-01-01T11:55:27.271Z,98767.25
2023-01-01T11:58:47.328Z,98757.59
2023-01-01T12:02:01.443Z,98751.34
2023-01-01T12:05:24.764Z,98752.16
2023-01-01T12:08:40.996Z,98735.94
2023-01-01T12:11:56.037Z,98744.63
2023-01-01T12:15:14.183Z,98735.56
2023-01-01T12:18:31.828Z,98744.94
2023-01-01T12:21:50.783Z,98749.47
2023-01-01T12:25:01.232Z,98747.69
2023-01-01T12:28:32.225Z,98734.22
2023-01-01T12:31:55.297Z,98731.34
2023-01-01T12:35:19.479Z,98724.59
2023-01-01T12:38:56.416Z,98733.72
2023-01-01T12:42:20.085Z,98740.00
2023-01-01T12:46:15.715Z,98740.94
2023-01-01T12:49:50.066Z,98746.47
2023-01-01T12:53:20.582Z,98745.25
2023-01-01T12:56:38.718Z,98763.44
2023-01-01T12:59:53.661Z,98774.16
2023-01-01T13:03:10.087Z,98768.97
2023-01-01T13:06:28.142Z,98767.16
2023-01-01T13:09:40.949Z,98771.75
2023-01-01T13:12:48.425Z,98769.38
2023-01-01T13:15:58.680Z,98759.63
2023-01-01T13:19:08.985Z,98723.06
2023-01-01T13:22:45.491Z,98757.53
2023-01-01T13:25:51.794Z,98764.75
2023-01-01T13:29:37.711Z,98755.22
2023-01-01T13:33:26.218Z,98762.56
2023-01-01T13:36:37.918Z,98769.19
2023-01-01T13:40:00.212Z,98775.63
2023-01-01T13:43:23.552Z,98770.78
2023-01-01T13:46:52.155Z,98787.50
2023-01-01T13:50:16.152Z,98806.03
2023-01-01T13:54:15.120Z,98805.28
2023-01-01T13:58:02.548Z,98784.69
2023-01-01T14:01:48.988Z,98810.22
2023-01-01T14:05:02.604Z,98804.28
2023-01-01T14:08:13.210Z,98798.03
2023-01-01T14:11:29.480Z,98801.06
2023-01-01T14:14:36.495Z,98797.06
2023-01-01T14:17:46.114Z,98802.84
2023-01-01T14:20:56.619Z,98817.16
2023-01-01T14:24:07.763Z,98814.13
2023-01-01T14:27:24.906Z,98824.06
2023-01-01T14:30:36.237Z,98817.53
2023-01-01T14:33:42.965Z,98826.41
2023-01-01T14:36:57.411Z,98829.22
2023-01-01T14:40:26.937Z,98823.50
2023-01-01T14:43:39.445Z,98825.38
2023-01-01T14:46:51.136Z,98823.41
2023-01-01T14:50:03.649Z,98823.81
2023-01-01T14:53:21.362Z,98847.94
2023-01-01T14:56:33.808Z,98848.28
2023-01-01T14:59:54.653Z,98842.84
2023-01-01T15:03:10.570Z,98852.03
2023-01-01T15:06:20.976Z,98852.03
2023-01-01T15:09:27.186Z,98852.03
2023-01-01T15:12:39.401Z,98860.50
2023-01-01T15:15:50.996Z,98861.75
2023-01-01T15:18:58.181Z,98865.13
2023-01-01T15:22:04.168Z,98873.16
2023-01-01T15:25:19.003Z,98871.66
2023-01-01T15:28:25.165Z,98879.03
2023-01-01T15:31:49.738Z,98874.56
2023-01-01T15:34:58.548Z,98871.13
2023-01-01T15:38:14.978Z,98871.66
2023-01-01T15:41:29.303Z,98887.44
2023-01-01T15:44:38.261Z,98872.44
2023-01-01T15:47:47.969Z,98886.16
2023-01-01T15:51:18.212Z,98889.53
2023-01-01T15:54:23.948Z,98889.34
2023-01-01T15:57:31.678Z,98855.06
2023-01-01T16:00:46.823Z,98890.63
2023-01-01T16:04:10.284Z,98891.34
2023-01-01T16:07:23.576Z,98892.31
2023-01-01T16:10:30.442Z,98895.69
2023-01-01T16:13:35.933Z,98894.84
2023-01-01T16:16:49.689Z,98896.56
2023-01-01T16:19:57.892Z,98908.06
2023-01-01T16:23:04.210Z,98909.00
2023-01-01T16:26:09.676Z,98905.53
2023-01-01T16:29:16.260Z,98907.31
2023-01-01T16:32:22.180Z,98903.63
2023-01-01T16:35:31.152Z,98900.03
2023-01-01T16:38:36.524Z,98899.94
2023-01-01T16:41:45.340Z,98897.38
2023-01-01T16:44:51.168Z,98898.34
2023-01-01T16:47:57.906Z,98904.56
2023-01-01T16:51:06.321Z,98913.84
2023-01-01T16:54:13.305Z,98908.75
2023-01-01T16:57:18.730Z,98905.03
2023-01-01T17:00:25.146Z,98892.22
2023-01-01T17:03:30.827Z,98900.97
2023-01-01T17:06:41.332Z,98899.28
2023-01-01T17:09:46.720Z,98913.50
2023-01-01T17:12:52.919Z,98908.44
2023-01-01T17:15:59.908Z,98908.44
2023-01-01T17:19:17.645Z,98923.59
2023-01-01T17:22:33.904Z,98914.56
2023-01-01T17:25:40.742Z,98924.09
2023-01-01T17:28:47.885Z,98925.31
2023-01-01T17:31:55.479Z,98923.72
2023-01-01T17:35:00.861Z,98925.31
2023-01-01T17:38:09.874Z,98924.69
2023-01-01T17:41:18.565Z,98918.13
2023-01-01T17:44:25.181Z,98921.88
2023-01-01T17:47:33.880Z,98918.84
2023-01-01T17:50:40.101Z,98928.09
2023-01-01T17:53:51.593Z,98940.78
2023-01-01T17:57:03.730Z,98930.81
2023-01-01T18:00:11.175Z,98932.03
2023-01-01T18:03:23.641Z,98931.28
2023-01-01T18:06:30.801Z,98944.47
2023-01-01T18:09:40.675Z,98944.06
2023-01-01T18:12:46.215Z,98950.28
2023-01-01T18:15:52.549Z,98949.91
2023-01-01T18:19:01.205Z,98941.47
2023-01-01T18:22:07.787Z,98944.97
2023-01-01T18:25:19.883Z,98938.94
2023-01-01T18:28:26.249Z,98947.94
2023-01-01T18:31:34.605Z,98947.38
2023-01-01T18:34:40.934Z,98948.56
2023-01-01T18:37:49.581Z,98957.09
2023-01-01T18:41:22.351Z,98959.72
2023-01-01T18:44:31.202Z,98955.59
2023-01-01T18:47:37.882Z,98952.88
2023-01-01T18:50:43.302Z,98964.03
2023-01-01T18:53:49.599Z,98961.84
2023-01-01T18:57:13.563Z,98960.91
2023-01-01T19:00:26.201Z,98964.47
2023-01-01T19:03:37.495Z,98964.31
2023-01-01T19:06:47.077Z,98959.03
2023-01-01T19:09:58.765Z,98961.03
2023-01-01T19:13:20.824Z,98971.13
2023-01-01T19:16:33.355Z,98969.56
2023-01-01T19:19:44.827Z,98976.53
2023-01-01T19:22:50.783Z,98971.44
2023-01-01T19:26:06.940Z,98977.56
2023-01-01T19:29:20.679Z,98981.22
2023-01-01T19:32:27.037Z,98977.94
2023-01-01T19:35:32.410Z,98982.06
2023-01-01T19:38:39.802Z,98982.41
2023-01-01T19:41:45.550Z,98991.16
2023-01-01T19:44:54.908Z,98988.44
2023-01-01T19:48:00.311Z,98990.47
2023-01-01T19:51:07.029Z,98991.88
2023-01-01T19:54:12.379Z,98989.25
2023-01-01T19:57:19.050Z,98987.38
2023-01-01T20:00:28.224Z,98991.88
2023-01-01T20:06:59.929Z,98992.13
2023-01-01T20:10:06.396Z,98986.78
2023-01-01T20:13:12.470Z,98992.22
2023-01-01T20:16:21.526Z,98995.91
2023-01-01T20:19:27.695Z,98984.34
2023-01-01T20:22:34.046Z,98990.75
2023-01-01T20:25:39.477Z,98995.16
2023-01-01T20:29:01.657Z,98993.44
2023-01-01T20:32:13.505Z,98950.97
2023-01-01T20:35:39.880Z,98996.22
2023-01-01T20:38:42.523Z,98998.78
2023-01-01T20:41:49.787Z,98991.75
2023-01-01T20:44:55.396Z,98995.31
2023-01-01T20:48:04.465Z,98999.78
2023-01-01T20:51:09.991Z,98995.41
2023-01-01T20:54:16.479Z,98993.78
2023-01-01T20:57:21.978Z,98985.09
2023-01-01T21:00:28.134Z,98985.81
2023-01-01T21:03:36.757Z,98996.31
2023-01-01T21:06:42.979Z,98996.06
2023-01-01T21:09:48.347Z,99003.66
2023-01-01T21:12:54.585Z,99002.09
2023-01-01T21:16:20.864Z,98992.69
2023-01-01T21:19:31.689Z,98996.00
2023-01-01T21:22:37.818Z,99003.09
2023-01-01T21:25:52.528Z,98999.69
2023-01-01T21:28:58.399Z,98992.06
2023-01-01T21:32:24.294Z,98995.59
2023-01-01T21:35:38.341Z,98997.63
2023-01-01T21:38:44.911Z,98995.78
2023-01-01T21:41:50.365Z,98996.63
2023-01-01T21:45:00.953Z,98992.22
2023-01-01T21:48:19.266Z,98992.50
2023-01-01T21:51:30.803Z,98995.94
2023-01-01T21:54:40.730Z,98989.34
2023-01-01T21:57:47.294Z,98989.34
2023-01-01T22:00:52.699Z,98982.50
2023-01-01T22:04:04.768Z,98979.88
2023-01-01T22:10:54.837Z,98991.13
2023-01-01T22:14:00.407Z,99001.16
2023-01-01T22:17:20.007Z,98986.94
2023-01-01T22:20:28.459Z,98988.50
2023-01-01T22:23:44.771Z,98997.25
2023-01-01T22:26:50.320Z,98991.00
2023-01-01T22:29:58.725Z,98957.78
2023-01-01T22:33:04.273Z,98972.28
2023-01-01T22:36:18.731Z,98978.31
2023-01-01T22:39:33.471Z,98973.84
2023-01-01T22:42:42.302Z,98973.28
2023-01-01T22:45:51.663Z,98963.94
2023-01-01T22:49:04.059Z,98963.78
2023-01-01T22:52:09.432Z,98960.25
2023-01-01T22:55:19.661Z,98964.56
2023-01-01T22:58:25.129Z,98974.28
2023-01-01T23:01:32.277Z,98961.25
2023-01-01T23:04:38.122Z,98960.25
2023-01-01T23:07:45.436Z,98967.19
2023-01-01T23:10:53.885Z,98962.41
2023-01-01T23:14:17.732Z,98955.44
2023-01-01T23:17:23.129Z,98953.63
2023-01-01T23:20:29.856Z,98943.94
2023-01-01T23:23:36.277Z,98942.31
2023-01-01T23:26:46.923Z,98945.13
2023-01-01T23:29:57.418Z,98941.53
2023-01-01T23:33:04.023Z,98951.19
2023-01-01T23:36:12.523Z,98948.09
2023-01-01T23:39:18.788Z,98950.91
2023-01-01T23:42:28.310Z,98947.53
2023-01-01T23:45:35.159Z,98943.56
2023-01-01T23:48:40.925Z,98947.44
2023-01-01T23:51:47.534Z,98946.28
2023-01-01T23:54:52.946Z,98943.56
2023-01-01T23:58:02.116Z,98942.72
